Time;durP1;ratioP1;P1;durP2;ratioP2;P2;SDS_P1;SDS_P2;PMS_P1;PMS_P2;Temp;Humidity;BMP_temperature;BMP_pressure;BME280_temperature;BME280_humidity;BME280_pressure;Samples;Min_cycle;Max_cycle;Signal;HPM_P1;HPM_P2
2022/05/27 00:01:33;;;;;;;6.20;0.80;;;17.00;99.90;;;;;;4958066;28;20457;-69
2022/05/27 00:04:02;;;;;;;1.47;0.90;;;17.00;99.90;;;;;;4955951;28;20171;-70
2022/05/27 00:06:29;;;;;;;0.90;0.77;;;17.00;99.90;;;;;;4958043;28;20476;-70
2022/05/27 00:08:55;;;;;;;0.90;0.70;;;17.00;99.90;;;;;;4957763;28;20787;-69
2022/05/27 00:11:24;;;;;;;1.03;0.77;;;17.00;99.90;;;;;;4957406;28;20492;-70
2022/05/27 00:13:51;;;;;;;1.47;0.90;;;17.00;99.90;;;;;;4957086;28;20410;-69
2022/05/27 00:16:17;;;;;;;0.90;0.70;;;16.90;99.90;;;;;;4956581;28;20410;-70
2022/05/27 00:18:43;;;;;;;1.10;0.70;;;16.90;99.90;;;;;;4956748;28;20426;-71
2022/05/27 00:21:09;;;;;;;2.60;0.83;;;16.90;99.90;;;;;;4970941;28;20606;-70
2022/05/27 00:23:37;;;;;;;2.00;1.90;;;16.90;99.90;;;;;;4954989;28;20656;-70
2022/05/27 00:26:03;;;;;;;1.07;0.70;;;16.90;99.90;;;;;;4972333;28;20947;-70
2022/05/27 00:28:28;;;;;;;1.20;0.90;;;16.80;99.90;;;;;;4956624;28;20406;-70
2022/05/27 00:30:54;;;;;;;1.17;0.93;;;16.80;99.90;;;;;;4956118;28;21055;-71
2022/05/27 00:33:20;;;;;;;0.80;0.60;;;16.80;99.90;;;;;;4957289;28;20233;-73
2022/05/27 00:35:46;;;;;;;1.17;0.60;;;16.70;99.90;;;;;;4956055;28;20402;-71
2022/05/27 00:38:12;;;;;;;1.57;0.60;;;16.70;99.90;;;;;;4971531;28;20194;-70
2022/05/27 00:40:51;;;;;;;1.00;0.90;;;16.70;99.90;;;;;;4958137;28;20202;-70
2022/05/27 00:43:17;;;;;;;1.27;1.17;;;16.70;99.90;;;;;;4956237;28;20402;-70
2022/05/27 00:45:45;;;;;;;1.87;1.77;;;16.70;99.90;;;;;;4954877;28;20887;-70
2022/05/27 00:48:14;;;;;;;3.27;1.00;;;16.70;99.90;;;;;;4956311;28;20166;-71
2022/05/27 00:50:42;;;;;;;1.90;1.80;;;16.70;99.90;;;;;;4956574;28;20441;-70
2022/05/27 00:53:10;;;;;;;1.30;1.20;;;16.70;99.90;;;;;;4956742;28;20414;-71
2022/05/27 00:55:44;;;;;;;1.20;0.87;;;16.70;99.90;;;;;;4954944;28;20441;-70
2022/05/27 00:58:14;;;;;;;3.90;1.00;;;16.60;99.90;;;;;;4956107;28;20468;-70
2022/05/27 01:00:39;;;;;;;1.70;0.80;;;16.70;99.90;;;;;;4956193;28;21050;-70
2022/05/27 01:03:07;;;;;;;1.33;1.23;;;16.70;99.90;;;;;;4971074;28;20446;-69
2022/05/27 01:05:33;;;;;;;1.20;0.70;;;16.70;99.90;;;;;;4954939;28;20178;-71
2022/05/27 01:08:05;;;;;;;2.63;0.73;;;16.60;99.90;;;;;;4956384;28;20493;-70
2022/05/27 01:10:54;;;;;;;0.80;0.60;;;16.70;99.90;;;;;;4956114;28;20225;-71
2022/05/27 01:13:46;;;;;;;3.17;0.83;;;16.70;99.90;;;;;;4956863;28;20406;-70
2022/05/27 01:16:30;;;;;;;1.10;0.90;;;16.70;99.90;;;;;;4956623;28;20935;-70
2022/05/27 01:22:24;;;;;;;2.10;0.83;;;16.70;99.90;;;;;;4954747;29;20405;-69
2022/05/27 01:25:16;;;;;;;0.90;0.80;;;16.70;99.90;;;;;;4955866;28;20409;-70
2022/05/27 01:28:00;;;;;;;0.90;0.73;;;16.70;99.90;;;;;;4953839;28;20406;-70
2022/05/27 01:30:40;;;;;;;0.80;0.50;;;16.70;99.90;;;;;;4955609;28;20426;-70
2022/05/27 01:33:36;;;;;;;3.83;0.97;;;16.70;99.90;;;;;;4956567;28;20404;-70
2022/05/27 01:36:23;;;;;;;0.90;0.70;;;16.70;99.90;;;;;;4954144;28;20446;-69
2022/05/27 01:39:22;;;;;;;0.90;0.80;;;16.70;99.90;;;;;;4955925;28;20892;-71
2022/05/27 01:42:19;;;;;;;1.20;1.00;;;16.70;99.90;;;;;;4956059;28;20520;-69
2022/05/27 01:44:59;;;;;;;0.80;0.60;;;16.70;99.90;;;;;;4957711;28;20410;-70
2022/05/27 01:47:45;;;;;;;0.93;0.87;;;16.70;99.90;;;;;;4957021;28;20409;-70
2022/05/27 01:50:18;;;;;;;1.10;0.93;;;16.70;99.90;;;;;;4959300;28;21049;-70
2022/05/27 01:53:03;;;;;;;1.00;0.90;;;16.70;99.90;;;;;;4957712;28;20417;-71
2022/05/27 01:55:35;;;;;;;0.87;0.70;;;16.70;99.90;;;;;;4959900;28;20915;-70
2022/05/27 01:58:11;;;;;;;0.97;0.87;;;16.70;99.90;;;;;;4959834;28;20441;-70
2022/05/27 02:00:40;;;;;;;1.40;1.30;;;16.70;99.90;;;;;;4956319;28;20461;-70
2022/05/27 02:03:36;;;;;;;1.63;0.80;;;16.70;99.90;;;;;;4957305;28;20472;-70
2022/05/27 02:06:26;;;;;;;1.03;0.80;;;16.70;99.90;;;;;;4952508;29;20421;-70
2022/05/27 02:08:58;;;;;;;0.90;0.80;;;16.70;99.90;;;;;;4959339;28;20489;-70
2022/05/27 02:11:24;;;;;;;0.80;0.60;;;16.70;99.90;;;;;;4958797;28;20410;-71
2022/05/27 02:14:24;;;;;;;1.17;1.07;;;16.70;99.90;;;;;;4956681;28;20413;-70
2022/05/27 02:16:52;;;;;;;0.80;0.60;;;16.70;99.90;;;;;;4953968;28;20491;-70
2022/05/27 02:19:38;;;;;;;0.90;0.70;;;16.70;99.90;;;;;;4966863;28;20516;-70
2022/05/27 02:22:12;;;;;;;1.00;0.60;;;16.70;99.90;;;;;;4964753;28;20564;-70
2022/05/27 02:24:48;;;;;;;1.00;0.90;;;16.70;99.90;;;;;;4967102;28;20401;-70
2022/05/27 02:27:21;;;;;;;1.10;0.80;;;16.70;99.90;;;;;;4963930;29;20532;-70
2022/05/27 02:29:51;;;;;;;1.57;0.90;;;16.70;99.90;;;;;;4966732;28;20453;-70
2022/05/27 02:32:24;;;;;;;1.03;0.77;;;16.70;99.90;;;;;;4963315;28;20404;-70
2022/05/27 02:35:09;;;;;;;0.80;0.60;;;16.70;99.90;;;;;;4963348;28;20401;-69
2022/05/27 02:37:45;;;;;;;1.30;0.80;;;16.70;99.90;;;;;;4960774;28;20413;-70
2022/05/27 02:40:16;;;;;;;0.90;0.70;;;16.70;99.90;;;;;;4961054;28;20452;-71
2022/05/27 02:42:54;;;;;;;0.80;0.50;;;16.70;99.90;;;;;;4961688;28;20431;-70
2022/05/27 02:45:34;;;;;;;0.90;0.70;;;16.70;99.90;;;;;;4961311;28;20480;-71
2022/05/27 02:48:22;;;;;;;0.80;0.60;;;16.70;99.90;;;;;;4961550;28;20428;-70
2022/05/27 02:51:08;;;;;;;1.07;0.90;;;16.60;99.90;;;;;;4961141;28;20545;-70
2022/05/27 02:53:54;;;;;;;0.80;0.70;;;16.60;99.90;;;;;;4961682;28;20754;-70
2022/05/27 02:56:30;;;;;;;0.93;0.70;;;16.60;99.90;;;;;;4962900;28;20405;-69
2022/05/27 02:58:55;;;;;;;1.20;1.10;;;16.60;99.90;;;;;;4960755;28;20429;-70
2022/05/27 03:01:22;;;;;;;0.97;0.87;;;16.50;99.90;;;;;;4963934;28;20470;-70
2022/05/27 03:03:47;;;;;;;1.43;0.60;;;16.50;99.90;;;;;;4961321;28;20166;-70
2022/05/27 03:06:31;;;;;;;1.67;1.17;;;16.50;99.90;;;;;;4961733;28;20840;-70
2022/05/27 03:09:06;;;;;;;0.90;0.70;;;16.40;99.90;;;;;;4959731;28;20265;-69
2022/05/27 03:11:53;;;;;;;1.00;0.80;;;16.40;99.90;;;;;;4960884;28;20876;-70
2022/05/27 03:14:50;;;;;;;1.40;0.70;;;16.20;99.90;;;;;;4960684;28;20481;-70
2022/05/27 03:17:42;;;;;;;1.47;1.03;;;16.20;99.90;;;;;;4954717;28;20540;-70
2022/05/27 03:20:39;;;;;;;0.90;0.67;;;16.10;99.90;;;;;;4961473;28;20462;-70
2022/05/27 03:23:39;;;;;;;1.00;0.83;;;16.00;99.90;;;;;;4960200;28;20468;-69
2022/05/27 03:26:29;;;;;;;0.80;0.60;;;15.90;99.90;;;;;;4960570;28;20405;-69
2022/05/27 03:29:13;;;;;;;1.03;0.90;;;15.80;99.90;;;;;;4955047;28;20485;-70
2022/05/27 03:31:48;;;;;;;0.90;0.80;;;15.70;99.90;;;;;;4957260;28;20488;-69
2022/05/27 03:34:53;;;;;;;1.10;0.60;;;15.60;99.90;;;;;;4956993;28;20417;-70
2022/05/27 03:37:25;;;;;;;0.80;0.50;;;15.50;99.90;;;;;;4951334;28;20512;-70
2022/05/27 03:40:04;;;;;;;1.93;1.03;;;15.40;99.90;;;;;;4956243;28;20472;-70
2022/05/27 03:42:31;;;;;;;0.80;0.60;;;15.40;99.90;;;;;;4956302;28;20421;-70
2022/05/27 03:45:09;;;;;;;1.63;1.00;;;15.30;99.90;;;;;;4956777;28;20436;-70
2022/05/27 03:47:36;;;;;;;1.00;0.70;;;15.30;99.90;;;;;;4955064;28;20418;-70
2022/05/27 03:50:02;;;;;;;0.97;0.70;;;15.30;99.90;;;;;;4956369;28;20462;-69
2022/05/27 03:52:34;;;;;;;0.80;0.60;;;15.20;99.90;;;;;;4955236;29;20430;-70
2022/05/27 03:54:59;;;;;;;1.33;1.23;;;15.20;99.90;;;;;;4956328;28;20437;-70
2022/05/27 03:57:25;;;;;;;1.57;0.70;;;15.10;99.90;;;;;;4970970;28;20825;-69
2022/05/27 03:59:51;;;;;;;0.80;0.60;;;15.10;99.90;;;;;;4956289;28;20194;-70
2022/05/27 04:02:16;;;;;;;1.10;1.00;;;15.10;99.90;;;;;;4956259;28;20417;-70
2022/05/27 04:04:42;;;;;;;0.80;0.60;;;15.10;99.90;;;;;;4956497;28;20261;-69
2022/05/27 04:07:07;;;;;;;0.90;0.70;;;15.10;99.90;;;;;;4956010;28;20258;-69
2022/05/27 04:09:33;;;;;;;0.90;0.60;;;15.00;99.90;;;;;;4956245;28;20205;-70
2022/05/27 04:11:59;;;;;;;1.07;0.97;;;15.10;99.90;;;;;;4956337;28;20573;-70
2022/05/27 04:14:25;;;;;;;1.00;0.80;;;15.10;99.90;;;;;;4956513;28;20445;-70
2022/05/27 04:16:51;;;;;;;1.00;0.73;;;15.10;99.90;;;;;;4955756;28;20599;-70
2022/05/27 04:19:17;;;;;;;0.77;0.50;;;15.10;99.90;;;;;;4956135;28;20194;-69
2022/05/27 04:21:43;;;;;;;0.80;0.60;;;15.10;99.90;;;;;;4956306;28;20178;-69
2022/05/27 04:24:09;;;;;;;1.27;0.90;;;15.10;99.90;;;;;;4955444;28;20990;-70
2022/05/27 04:26:35;;;;;;;0.80;0.60;;;15.10;99.90;;;;;;4956116;28;20418;-70
2022/05/27 04:29:01;;;;;;;1.27;1.00;;;15.20;99.90;;;;;;4955839;28;20536;-70
2022/05/27 04:31:27;;;;;;;1.33;0.97;;;15.20;99.90;;;;;;4954390;28;20465;-70
2022/05/27 04:33:52;;;;;;;1.97;1.00;;;15.20;99.90;;;;;;4956020;28;20422;-70
2022/05/27 04:36:18;;;;;;;0.90;0.80;;;15.30;99.90;;;;;;4955816;28;20229;-71
2022/05/27 04:38:44;;;;;;;1.23;0.73;;;15.30;99.90;;;;;;4955132;28;20173;-70
2022/05/27 04:41:09;;;;;;;1.00;0.60;;;15.30;99.90;;;;;;4954083;28;20194;-70
2022/05/27 04:43:35;;;;;;;1.40;0.73;;;15.30;99.90;;;;;;4955879;28;20181;-69
2022/05/27 04:46:01;;;;;;;0.83;0.67;;;15.30;99.90;;;;;;4970607;28;20182;-71
2022/05/27 04:48:26;;;;;;;0.80;0.70;;;15.30;99.90;;;;;;4955205;28;20174;-70
2022/05/27 04:50:52;;;;;;;1.10;1.00;;;15.30;99.90;;;;;;4955484;28;20826;-70
2022/05/27 04:53:18;;;;;;;1.67;1.10;;;15.30;99.90;;;;;;4955113;28;20170;-70
2022/05/27 04:55:44;;;;;;;0.80;0.63;;;15.30;99.90;;;;;;4954393;28;20257;-71
2022/05/27 04:58:11;;;;;;;1.30;1.03;;;15.30;99.90;;;;;;4955933;28;20921;-70
2022/05/27 05:00:39;;;;;;;0.80;0.60;;;15.30;99.90;;;;;;4955117;28;20194;-70
2022/05/27 05:03:05;;;;;;;0.80;0.60;;;15.30;99.90;;;;;;4955498;28;20418;-69
2022/05/27 05:05:33;;;;;;;0.97;0.80;;;15.30;99.90;;;;;;4955283;28;20424;-70
2022/05/27 05:08:00;;;;;;;0.80;0.70;;;15.30;99.90;;;;;;4954979;28;20425;-70
2022/05/27 05:10:26;;;;;;;1.07;0.90;;;15.40;99.90;;;;;;4955471;28;20464;-71
2022/05/27 05:12:52;;;;;;;1.10;1.00;;;15.40;99.90;;;;;;4955145;28;20414;-70
2022/05/27 05:15:19;;;;;;;0.80;0.70;;;15.40;99.90;;;;;;4954904;28;20410;-70
2022/05/27 05:17:45;;;;;;;1.10;0.93;;;15.50;99.90;;;;;;4954687;28;20457;-70
2022/05/27 05:20:13;;;;;;;1.00;0.90;;;15.50;99.90;;;;;;4954653;29;20433;-71
2022/05/27 05:22:39;;;;;;;1.40;0.70;;;15.50;99.90;;;;;;4953637;29;20788;-70
2022/05/27 05:25:06;;;;;;;1.47;1.20;;;15.50;99.90;;;;;;4954654;28;20417;-70
2022/05/27 05:27:33;;;;;;;1.00;0.70;;;15.50;99.90;;;;;;4954670;28;20939;-69
2022/05/27 05:29:59;;;;;;;0.93;0.70;;;15.60;99.90;;;;;;4954358;28;20501;-70
2022/05/27 05:32:24;;;;;;;0.87;0.67;;;15.60;99.90;;;;;;4953281;28;20815;-70
2022/05/27 05:34:50;;;;;;;1.23;0.90;;;15.60;99.90;;;;;;4954635;28;20171;-70
2022/05/27 05:37:16;;;;;;;1.40;0.90;;;15.60;99.90;;;;;;4954048;28;20197;-70
2022/05/27 05:39:42;;;;;;;0.90;0.70;;;15.60;99.90;;;;;;4954119;28;20552;-70
2022/05/27 05:42:08;;;;;;;0.90;0.77;;;15.70;99.90;;;;;;4954468;28;20414;-70
2022/05/27 05:44:35;;;;;;;1.87;1.03;;;15.70;99.90;;;;;;4954269;28;20174;-70
2022/05/27 05:47:02;;;;;;;1.43;0.80;;;15.70;99.90;;;;;;4954208;28;20938;-69
2022/05/27 05:49:28;;;;;;;0.90;0.80;;;15.70;99.90;;;;;;4954356;28;20465;-70
2022/05/27 05:51:56;;;;;;;1.10;1.00;;;15.70;99.90;;;;;;4952323;28;20496;-70
2022/05/27 05:54:23;;;;;;;1.03;0.90;;;15.60;99.90;;;;;;4954136;29;20167;-71
2022/05/27 05:56:49;;;;;;;1.73;0.97;;;15.60;99.90;;;;;;4953742;28;20409;-70
2022/05/27 05:59:16;;;;;;;1.83;0.90;;;15.60;99.90;;;;;;4954165;28;20432;-70
2022/05/27 06:01:42;;;;;;;0.80;0.60;;;15.70;99.90;;;;;;4954167;28;20417;-76
2022/05/27 06:04:08;;;;;;;1.07;0.97;;;15.70;99.90;;;;;;4954477;28;20424;-70
2022/05/27 06:06:33;;;;;;;0.90;0.60;;;15.80;99.90;;;;;;4954236;28;20410;-70
2022/05/27 06:08:59;;;;;;;1.17;0.97;;;15.80;99.90;;;;;;4953879;28;20185;-70
2022/05/27 06:11:25;;;;;;;1.13;1.03;;;15.90;99.90;;;;;;4953899;28;20205;-70
2022/05/27 06:13:50;;;;;;;2.40;0.60;;;16.00;99.90;;;;;;4954026;28;20174;-71
2022/05/27 06:16:16;;;;;;;0.70;0.50;;;16.00;99.90;;;;;;4954014;28;20185;-71
2022/05/27 06:18:42;;;;;;;1.50;1.30;;;16.00;99.90;;;;;;4953713;28;20699;-70
2022/05/27 06:21:07;;;;;;;2.50;1.23;;;16.10;99.90;;;;;;4953881;28;20253;-70
2022/05/27 06:23:33;;;;;;;0.90;0.70;;;16.10;99.90;;;;;;4953841;28;20791;-71
2022/05/27 06:26:02;;;;;;;0.90;0.80;;;16.10;99.90;;;;;;4953825;28;20170;-71
2022/05/27 06:36:42;;;;;;;0.80;0.70;;;16.30;99.90;;;;;;4953755;29;21093;-70
2022/05/27 06:39:08;;;;;;;1.00;0.87;;;16.30;99.90;;;;;;4953505;28;20437;-70
2022/05/27 06:41:34;;;;;;;0.80;0.60;;;16.30;99.90;;;;;;4953708;28;20876;-71
2022/05/27 06:44:00;;;;;;;0.90;0.60;;;16.40;99.90;;;;;;4953855;28;20166;-70
2022/05/27 06:46:26;;;;;;;0.80;0.70;;;16.40;99.90;;;;;;4952398;28;20504;-70
2022/05/27 06:48:51;;;;;;;1.00;0.77;;;16.40;99.90;;;;;;4967965;28;20178;-70
2022/05/27 06:51:18;;;;;;;0.73;0.57;;;16.50;99.90;;;;;;4953880;28;20225;-70
2022/05/27 06:53:44;;;;;;;0.70;0.60;;;16.50;99.90;;;;;;4953522;28;20249;-70
2022/05/27 06:56:10;;;;;;;0.70;0.50;;;16.60;99.90;;;;;;4953702;28;20947;-70
2022/05/27 06:58:37;;;;;;;0.80;0.60;;;16.60;99.90;;;;;;4953363;28;20480;-70
2022/05/27 07:01:04;;;;;;;0.70;0.50;;;16.60;99.90;;;;;;4968449;28;20205;-71
2022/05/27 07:03:30;;;;;;;0.70;0.50;;;16.60;99.90;;;;;;4955831;28;20504;-71
2022/05/27 07:05:55;;;;;;;0.80;0.60;;;16.70;99.90;;;;;;4956958;28;20410;-71
2022/05/27 07:08:21;;;;;;;0.93;0.80;;;16.70;99.90;;;;;;4956698;28;20425;-70
2022/05/27 07:10:47;;;;;;;0.70;0.50;;;16.80;99.90;;;;;;4956865;28;20575;-71
2022/05/27 07:13:13;;;;;;;0.70;0.60;;;16.80;99.90;;;;;;4956699;28;20257;-70
2022/05/27 07:15:40;;;;;;;0.70;0.50;;;16.90;99.90;;;;;;4956919;28;20198;-70
2022/05/27 07:18:08;;;;;;;1.20;0.90;;;16.90;99.90;;;;;;4956452;28;20425;-70
2022/05/27 07:20:36;;;;;;;0.70;0.60;;;17.00;99.90;;;;;;4956863;28;20429;-71
2022/05/27 07:23:02;;;;;;;1.07;0.80;;;17.00;99.90;;;;;;4956796;28;20474;-70
2022/05/27 07:25:27;;;;;;;0.80;0.60;;;17.00;99.90;;;;;;4971652;28;20406;-70
2022/05/27 07:27:53;;;;;;;0.90;0.70;;;17.00;99.90;;;;;;4956249;28;20414;-69
2022/05/27 07:30:19;;;;;;;0.90;0.60;;;17.00;99.90;;;;;;4956582;28;20574;-71
2022/05/27 07:32:45;;;;;;;0.77;0.57;;;17.10;99.90;;;;;;4956661;28;20166;-71
2022/05/27 07:35:11;;;;;;;0.73;0.57;;;17.10;99.90;;;;;;4971575;28;20229;-71
2022/05/27 07:37:36;;;;;;;0.70;0.53;;;17.20;99.90;;;;;;4956326;28;20406;-71
2022/05/27 07:40:02;;;;;;;0.90;0.70;;;17.30;99.90;;;;;;4956467;29;20505;-71
2022/05/27 07:42:28;;;;;;;0.70;0.50;;;17.30;99.90;;;;;;4956508;28;20170;-70
2022/05/27 07:44:53;;;;;;;0.70;0.50;;;17.40;99.90;;;;;;4956359;28;20221;-70
2022/05/27 07:47:20;;;;;;;0.80;0.60;;;17.50;99.90;;;;;;4956211;28;20225;-71
2022/05/27 07:49:45;;;;;;;0.80;0.50;;;17.70;99.90;;;;;;4954967;28;20583;-71
2022/05/27 07:52:11;;;;;;;0.77;0.53;;;17.80;99.90;;;;;;4956461;28;20414;-71
2022/05/27 07:54:36;;;;;;;0.70;0.50;;;18.10;99.90;;;;;;4956293;28;20636;-70
2022/05/27 07:57:03;;;;;;;1.80;0.83;;;18.40;99.90;;;;;;4956006;28;20175;-71
2022/05/27 07:59:29;;;;;;;0.80;0.60;;;18.70;99.90;;;;;;4956002;28;20205;-71
2022/05/27 08:01:55;;;;;;;0.80;0.70;;;19.40;99.90;;;;;;4971002;28;20418;-71
2022/05/27 08:04:20;;;;;;;1.07;0.90;;;19.80;99.90;;;;;;4956085;28;20540;-70
2022/05/27 08:06:46;;;;;;;1.00;0.80;;;20.20;99.90;;;;;;4956128;28;20497;-70
2022/05/27 08:09:13;;;;;;;0.70;0.60;;;20.70;99.90;;;;;;4955694;28;20186;-71
2022/05/27 08:11:39;;;;;;;0.80;0.70;;;21.10;99.90;;;;;;4955988;28;20205;-71
2022/05/27 08:14:05;;;;;;;0.80;0.60;;;21.30;99.90;;;;;;4955241;28;20811;-72
2022/05/27 08:16:33;;;;;;;0.93;0.83;;;21.30;99.90;;;;;;4954475;28;20170;-71
2022/05/27 08:18:59;;;;;;;0.73;0.60;;;21.20;99.90;;;;;;4955630;28;20438;-70
2022/05/27 08:21:25;;;;;;;1.73;1.07;;;21.10;99.90;;;;;;4954465;29;20421;-70
2022/05/27 08:23:51;;;;;;;0.80;0.60;;;21.00;99.90;;;;;;4954487;28;20422;-70
2022/05/27 08:26:16;;;;;;;0.87;0.80;;;21.10;99.90;;;;;;4955731;28;20781;-70
2022/05/27 08:28:44;;;;;;;0.80;0.70;;;22.00;99.90;;;;;;4955493;28;20166;-72
2022/05/27 08:31:09;;;;;;;1.43;0.87;;;23.50;99.90;;;;;;4955472;28;20232;-72
2022/05/27 08:39:09;;;;;;;1.00;0.73;;;25.30;99.90;;;;;;4955235;29;20525;-72
2022/05/27 08:42:03;;;;;;;1.07;0.87;;;24.90;99.90;;;;;;4955436;28;20792;-70
2022/05/27 08:44:53;;;;;;;1.00;0.90;;;24.60;99.90;;;;;;4955398;28;20909;-71
2022/05/27 08:47:44;;;;;;;0.80;0.60;;;24.20;99.90;;;;;;4955132;28;20421;-71
2022/05/27 08:50:29;;;;;;;0.80;0.60;;;23.80;99.90;;;;;;4955009;28;20519;-70
2022/05/27 08:53:28;;;;;;;1.80;1.10;;;24.00;99.90;;;;;;4955243;28;20437;-71
2022/05/27 09:01:48;;;;;;;1.00;0.83;;;32.20;99.90;;;;;;4955363;29;20412;-71
2022/05/27 09:04:21;;;;;;;1.00;0.90;;;35.10;99.90;;;;;;4954999;28;21048;-72
2022/05/27 09:06:59;;;;;;;0.97;0.87;;;37.50;99.90;;;;;;4954998;28;20432;-72
2022/05/27 09:09:27;;;;;;;1.10;0.90;;;39.40;99.90;;;;;;4954856;28;20429;-72
2022/05/27 09:12:29;;;;;;;1.10;1.00;;;41.10;96.40;;;;;;4954909;28;20464;-72
2022/05/27 09:15:17;;;;;;;0.90;0.80;;;42.60;82.20;;;;;;4954797;28;20978;-72
2022/05/27 09:17:53;;;;;;;1.13;1.03;;;44.10;68.30;;;;;;4954492;28;20915;-72
2022/05/27 09:20:23;;;;;;;1.10;1.00;;;43.90;59.80;;;;;;4969608;28;20426;-72
2022/05/27 09:23:07;;;;;;;1.20;1.10;;;43.70;56.80;;;;;;4954715;28;20493;-72
2022/05/27 09:25:49;;;;;;;1.20;1.10;;;42.50;54.40;;;;;;4954059;28;20505;-72
2022/05/27 09:28:53;;;;;;;1.00;0.90;;;41.00;52.20;;;;;;4953079;28;20410;-71
2022/05/27 09:31:29;;;;;;;1.13;1.03;;;39.90;51.60;;;;;;4954421;28;20539;-72
2022/05/27 09:33:55;;;;;;;1.10;1.00;;;40.00;50.10;;;;;;4969381;28;20448;-72
2022/05/27 09:36:34;;;;;;;1.03;0.93;;;40.30;48.60;;;;;;4954456;28;20406;-72
2022/05/27 09:39:03;;;;;;;1.10;0.97;;;40.60;47.80;;;;;;4954296;28;20756;-73
2022/05/27 09:41:48;;;;;;;2.83;1.37;;;40.70;46.90;;;;;;4954599;28;20418;-72
2022/05/27 09:44:50;;;;;;;1.10;1.00;;;41.20;45.30;;;;;;4954537;28;20903;-73
2022/05/27 09:47:17;;;;;;;1.93;1.83;;;41.70;44.90;;;;;;4942357;28;20488;-73
2022/05/27 09:49:45;;;;;;;1.50;1.40;;;42.90;42.10;;;;;;4954282;28;20421;-72
2022/05/27 09:52:10;;;;;;;1.40;1.30;;;43.90;40.30;;;;;;4954301;28;20441;-73
2022/05/27 09:54:44;;;;;;;1.40;1.20;;;44.40;40.40;;;;;;4954130;28;20429;-70
2022/05/27 09:57:13;;;;;;;1.43;1.33;;;44.50;38.30;;;;;;4954019;28;20178;-69
2022/05/27 09:59:45;;;;;;;1.20;1.10;;;44.20;37.00;;;;;;4954220;28;20403;-69
2022/05/27 10:02:30;;;;;;;1.27;1.17;;;45.10;37.90;;;;;;4954338;28;20398;-71
2022/05/27 10:05:00;;;;;;;1.20;1.10;;;46.60;36.90;;;;;;4954233;28;20430;-71
2022/05/27 10:07:29;;;;;;;1.20;1.10;;;47.90;36.10;;;;;;4954085;28;20418;-71
2022/05/27 10:09:55;;;;;;;1.30;1.20;;;49.20;35.30;;;;;;4954159;28;20771;-71
2022/05/27 10:12:41;;;;;;;1.57;1.47;;;50.10;31.40;;;;;;4954428;28;20445;-71
2022/05/27 10:15:06;;;;;;;1.60;1.50;;;51.00;30.90;;;;;;4954159;28;20182;-71
2022/05/27 10:17:36;;;;;;;1.57;1.47;;;51.50;30.10;;;;;;4954118;28;20426;-70
2022/05/27 10:20:29;;;;;;;1.30;1.20;;;50.90;29.90;;;;;;4954575;28;20229;-70
2022/05/27 10:23:37;;;;;;;1.97;1.87;;;49.70;29.80;;;;;;4951732;29;20396;-71
2022/05/27 10:26:23;;;;;;;1.50;1.37;;;48.00;29.00;;;;;;4954919;28;20442;-70
2022/05/27 10:29:04;;;;;;;1.30;1.20;;;48.20;29.60;;;;;;4953847;28;20398;-70
2022/05/27 10:31:29;;;;;;;1.30;1.20;;;49.20;29.90;;;;;;4953941;28;20377;-70
2022/05/27 10:33:55;;;;;;;1.40;1.30;;;48.60;28.80;;;;;;4955480;28;20380;-70
2022/05/27 10:36:21;;;;;;;1.40;1.30;;;47.10;28.90;;;;;;4954862;28;20640;-70
2022/05/27 10:39:03;;;;;;;1.40;1.30;;;45.40;29.30;;;;;;4957255;28;20416;-69
2022/05/27 10:41:50;;;;;;;1.10;1.00;;;44.20;29.90;;;;;;4957525;28;20198;-70
2022/05/27 10:44:43;;;;;;;1.20;1.10;;;44.90;30.60;;;;;;4959838;28;20382;-70
2022/05/27 10:47:33;;;;;;;2.13;1.50;;;46.60;30.80;;;;;;4958239;28;20944;-70
2022/05/27 10:50:27;;;;;;;1.73;1.60;;;48.50;30.50;;;;;;4958148;28;20422;-71
2022/05/27 10:53:21;;;;;;;1.50;1.40;;;50.20;29.80;;;;;;4958182;28;20415;-70
2022/05/27 10:56:05;;;;;;;2.80;1.30;;;51.70;29.40;;;;;;4957413;29;20862;-73
2022/05/27 11:02:22;;;;;;;1.50;1.40;;;53.60;27.90;;;;;;4960230;29;20483;-70
2022/05/27 11:05:28;;;;;;;1.60;1.50;;;54.50;26.90;;;;;;4937534;29;20783;-71
2022/05/27 11:08:25;;;;;;;1.60;1.50;;;55.20;26.10;;;;;;4952099;28;20881;-71
2022/05/27 11:11:17;;;;;;;1.80;1.70;;;55.30;25.50;;;;;;4944109;29;20415;-70
2022/05/27 11:17:01;;;;;;;1.90;1.80;;;56.10;24.60;;;;;;4959549;29;20378;-71
2022/05/27 11:19:41;;;;;;;1.83;1.73;;;56.50;24.60;;;;;;4960476;28;20985;-72
2022/05/27 11:22:35;;;;;;;1.80;1.70;;;56.70;24.20;;;;;;4960578;28;20465;-72
2022/05/27 11:25:42;;;;;;;1.60;1.50;;;56.70;24.10;;;;;;4960829;28;20398;-70
2022/05/27 11:28:35;;;;;;;2.00;1.90;;;56.90;24.30;;;;;;4950232;29;20421;-71
2022/05/27 11:31:14;;;;;;;1.80;1.70;;;57.10;24.30;;;;;;4959050;28;20433;-71
2022/05/27 11:33:52;;;;;;;2.00;1.90;;;57.20;23.50;;;;;;4958684;28;20452;-71
2022/05/27 11:36:44;;;;;;;2.10;2.00;;;57.20;23.20;;;;;;4959296;28;20406;-70
2022/05/27 11:39:22;;;;;;;1.80;1.70;;;57.10;23.30;;;;;;4958819;28;20480;-70
2022/05/27 11:42:01;;;;;;;2.50;2.40;;;55.60;22.80;;;;;;4958253;28;20849;-69
2022/05/27 11:44:47;;;;;;;2.10;1.90;;;53.00;22.90;;;;;;4958626;28;20377;-70
2022/05/27 11:47:43;;;;;;;2.13;2.03;;;50.00;23.40;;;;;;4964051;28;20376;-69
2022/05/27 11:50:30;;;;;;;1.77;1.30;;;47.20;24.10;;;;;;4961198;28;20564;-69
2022/05/27 11:53:35;;;;;;;1.20;1.10;;;45.00;25.10;;;;;;4957394;28;20539;-70
2022/05/27 11:56:23;;;;;;;1.20;1.10;;;44.60;26.40;;;;;;4960940;28;20782;-72
2022/05/27 11:58:59;;;;;;;1.10;1.00;;;45.70;26.90;;;;;;4963111;28;20413;-70
2022/05/27 12:01:55;;;;;;;1.33;1.23;;;45.60;26.60;;;;;;4960882;28;20457;-70
2022/05/27 12:04:45;;;;;;;1.50;1.40;;;45.60;26.70;;;;;;4960426;29;20485;-70
2022/05/27 12:07:29;;;;;;;1.97;1.33;;;45.90;26.50;;;;;;4959815;28;20410;-71
2022/05/27 12:10:14;;;;;;;1.33;1.23;;;46.30;26.30;;;;;;4960516;28;20407;-69
2022/05/27 12:13:05;;;;;;;1.33;1.23;;;47.10;26.30;;;;;;4963366;28;20471;-70
2022/05/27 12:15:37;;;;;;;1.30;1.20;;;48.30;26.30;;;;;;4962653;28;20398;-69
2022/05/27 12:18:08;;;;;;;1.20;1.10;;;48.60;25.90;;;;;;4964131;28;20463;-70
2022/05/27 12:20:35;;;;;;;1.30;1.20;;;48.30;25.90;;;;;;4960729;28;20466;-70
2022/05/27 12:23:06;;;;;;;1.97;1.87;;;47.50;25.90;;;;;;4976234;28;20758;-70
2022/05/27 12:25:41;;;;;;;1.87;1.30;;;47.10;25.90;;;;;;4961858;28;20410;-70
2022/05/27 12:28:08;;;;;;;1.10;1.00;;;46.00;25.60;;;;;;4964286;28;20421;-70
2022/05/27 12:30:40;;;;;;;1.70;1.60;;;45.00;25.70;;;;;;4963780;28;20411;-70
2022/05/27 12:33:10;;;;;;;1.20;1.10;;;44.80;26.10;;;;;;4962741;28;20384;-71
2022/05/27 12:35:36;;;;;;;1.40;1.20;;;44.50;26.00;;;;;;4963846;28;20409;-70
2022/05/27 12:38:11;;;;;;;1.00;0.90;;;43.60;25.70;;;;;;4963092;28;20487;-70
2022/05/27 12:40:55;;;;;;;1.20;1.10;;;42.50;25.90;;;;;;4980248;28;20210;-70
2022/05/27 12:43:30;;;;;;;1.20;1.10;;;41.20;26.20;;;;;;4965808;28;20493;-69
2022/05/27 12:46:01;;;;;;;1.20;1.10;;;41.20;27.00;;;;;;4963739;28;20417;-69
2022/05/27 12:48:29;;;;;;;1.20;1.10;;;42.10;27.30;;;;;;4962930;28;20481;-70
2022/05/27 12:50:58;;;;;;;1.27;1.17;;;43.20;27.20;;;;;;4961791;28;20430;-70
2022/05/27 12:53:35;;;;;;;1.10;1.00;;;44.30;27.00;;;;;;4960530;28;20457;-69
2022/05/27 13:02:17;;;;;;;1.20;1.10;;;46.00;26.50;;;;;;4960420;29;20447;-70
2022/05/27 13:04:49;;;;;;;2.03;1.20;;;45.80;25.90;;;;;;4959636;28;20996;-70
2022/05/27 13:07:20;;;;;;;1.50;1.40;;;45.30;25.80;;;;;;4963526;28;20385;-70
2022/05/27 13:09:47;;;;;;;1.30;1.20;;;44.40;25.60;;;;;;4961746;28;20434;-69
2022/05/27 13:12:58;;;;;;;1.20;1.10;;;43.60;25.50;;;;;;4960744;28;20465;-70
2022/05/27 13:15:44;;;;;;;1.00;0.90;;;42.60;25.60;;;;;;4962839;28;20424;-69
2022/05/27 13:18:25;;;;;;;1.30;1.20;;;41.40;26.10;;;;;;4963023;28;20429;-70
2022/05/27 13:20:50;;;;;;;0.90;0.80;;;40.60;26.40;;;;;;4964645;28;20479;-69
2022/05/27 13:23:25;;;;;;;1.10;1.00;;;39.70;26.80;;;;;;4964658;29;20414;-70
2022/05/27 13:26:13;;;;;;;1.00;0.90;;;38.90;27.40;;;;;;4964960;28;20182;-70
2022/05/27 13:28:52;;;;;;;1.00;0.87;;;38.00;28.00;;;;;;4966099;28;20406;-68
2022/05/27 13:31:24;;;;;;;1.10;1.00;;;37.20;28.60;;;;;;4963753;28;20409;-72
2022/05/27 13:33:56;;;;;;;0.93;0.83;;;36.40;29.10;;;;;;4959999;28;20417;-72
2022/05/27 13:36:25;;;;;;;1.10;1.00;;;35.60;29.10;;;;;;4958935;28;20409;-72
2022/05/27 13:39:04;;;;;;;1.10;0.90;;;34.80;29.30;;;;;;4958455;28;20800;-73
2022/05/27 13:41:40;;;;;;;1.03;0.93;;;34.10;29.70;;;;;;4958556;28;20864;-72
2022/05/27 13:44:06;;;;;;;1.27;1.00;;;33.40;30.10;;;;;;4957162;28;20439;-72
2022/05/27 13:46:38;;;;;;;0.90;0.80;;;32.90;30.80;;;;;;4958210;28;20986;-72
2022/05/27 13:49:15;;;;;;;1.10;1.00;;;32.50;31.50;;;;;;4958128;28;20413;-72
2022/05/27 13:51:44;;;;;;;1.07;0.93;;;32.00;31.60;;;;;;4960359;28;20425;-72
2022/05/27 13:54:16;;;;;;;0.90;0.70;;;31.60;31.70;;;;;;4964712;28;20757;-72
2022/05/27 13:56:53;;;;;;;0.90;0.80;;;31.10;31.90;;;;;;4965089;28;20923;-70
2022/05/27 13:59:38;;;;;;;1.00;0.70;;;30.70;32.30;;;;;;4963258;28;20437;-72